createdAt,value
2023-03-04T00:00:52.956Z,95264.59
2023-03-04T00:03:19.363Z,95261.16
2023-03-04T00:05:45.709Z,95260.75
2023-03-04T00:08:12.069Z,95264.88
2023-03-04T00:10:38.465Z,95268.84
2023-03-04T00:13:04.832Z,95266.09
2023-03-04T00:15:31.193Z,95258.22
2023-03-04T00:17:57.566Z,95262.28
2023-03-04T00:20:23.970Z,95263.75
2023-03-04T00:22:50.333Z,95268.09
2023-03-04T00:25:16.709Z,95263.59
2023-03-04T00:27:43.238Z,95268.59
2023-03-04T00:30:09.623Z,95271.56
2023-03-04T00:32:36.006Z,95268.66
2023-03-04T00:35:02.392Z,95270.16
2023-03-04T00:37:28.776Z,95268.50
2023-03-04T00:39:55.137Z,95276.94
2023-03-04T00:42:21.524Z,95268.94
2023-03-04T00:44:47.905Z,95269.84
2023-03-04T00:47:15.547Z,95276.88
2023-03-04T00:49:41.921Z,95270.16
2023-03-04T00:52:08.286Z,95269.56
2023-03-04T00:54:34.684Z,95271.00
2023-03-04T00:57:01.074Z,95274.94
2023-03-04T00:59:27.481Z,95269.75
2023-03-04T01:01:53.859Z,95268.66
2023-03-04T01:04:20.291Z,95279.56
2023-03-04T01:06:46.672Z,95270.78
2023-03-04T01:09:13.077Z,95270.78
2023-03-04T01:11:39.476Z,95267.66
2023-03-04T01:14:05.853Z,95266.84
2023-03-04T01:16:32.289Z,95266.78
2023-03-04T01:18:58.674Z,95271.56
2023-03-04T01:21:25.075Z,95254.63
2023-03-04T01:23:51.475Z,95259.94
2023-03-04T01:26:17.856Z,95265.13
2023-03-04T01:28:44.236Z,95259.53
2023-03-04T01:31:10.622Z,95256.78
2023-03-04T01:33:37.058Z,95254.69
2023-03-04T01:36:03.445Z,95253.66
2023-03-04T01:38:29.821Z,95260.91
2023-03-04T01:40:56.216Z,95257.41
2023-03-04T01:43:22.613Z,95261.03
2023-03-04T01:45:49.045Z,95257.72
2023-03-04T01:48:15.433Z,95248.47
2023-03-04T01:50:41.845Z,95246.47
2023-03-04T01:53:08.217Z,95243.56
2023-03-04T01:55:34.606Z,95251.72
2023-03-04T01:58:00.995Z,95241.84
2023-03-04T02:00:27.376Z,95241.44
2023-03-04T02:02:53.782Z,95242.97
2023-03-04T02:05:20.176Z,95241.50
2023-03-04T02:07:46.566Z,95237.09
2023-03-04T02:10:12.959Z,95243.03
2023-03-04T02:12:39.581Z,95237.06
2023-03-04T02:15:05.998Z,95231.06
2023-03-04T02:17:32.398Z,95231.91
2023-03-04T02:19:58.765Z,95235.28
2023-03-04T02:22:25.170Z,95232.84
2023-03-04T02:24:51.584Z,95231.97
2023-03-04T02:27:18.717Z,95232.97
2023-03-04T02:29:45.819Z,95233.53
2023-03-04T02:32:12.301Z,95224.19
2023-03-04T02:34:38.713Z,95225.44
2023-03-04T02:37:05.117Z,95224.28
2023-03-04T02:39:31.477Z,95224.53
2023-03-04T02:41:58.030Z,95229.19
2023-03-04T02:44:24.438Z,95227.22
2023-03-04T02:46:50.837Z,95224.47
2023-03-04T02:49:17.259Z,95225.81
2023-03-04T02:51:43.640Z,95228.44
2023-03-04T02:54:10.033Z,95218.28
2023-03-04T02:56:36.417Z,95221.44
2023-03-04T02:59:02.837Z,95218.03
2023-03-04T03:01:29.215Z,95220.97
2023-03-04T03:03:55.617Z,95215.97
2023-03-04T03:06:22.012Z,95216.44
2023-03-04T03:08:48.382Z,95221.22
2023-03-04T03:11:14.825Z,95219.88
2023-03-04T03:13:41.199Z,95218.13
2023-03-04T03:16:07.612Z,95219.97
2023-03-04T03:18:34.044Z,95214.66
2023-03-04T03:21:00.414Z,95209.94
2023-03-04T03:23:26.814Z,95208.25
2023-03-04T03:25:53.215Z,95207.81
2023-03-04T03:28:19.597Z,95205.84
2023-03-04T03:30:46.012Z,95206.16
2023-03-04T03:33:12.375Z,95203.63
2023-03-04T03:35:38.778Z,95215.38
2023-03-04T03:38:05.192Z,95213.03
2023-03-04T03:40:31.606Z,95203.88
2023-03-04T03:42:57.992Z,95211.28
2023-03-04T03:45:24.420Z,95209.31
2023-03-04T03:47:50.831Z,95214.91
2023-03-04T03:50:17.209Z,95201.72
2023-03-04T03:52:43.587Z,95205.69
2023-03-04T03:55:09.986Z,95204.06
2023-03-04T03:57:36.413Z,95209.47
2023-03-04T04:00:02.783Z,95213.03
2023-03-04T04:02:29.235Z,95209.94
2023-03-04T04:04:55.667Z,95214.44
2023-03-04T04:07:22.064Z,95212.22
2023-03-04T04:09:48.439Z,95211.47
2023-03-04T04:12:14.854Z,95212.00
2023-03-04T04:14:41.293Z,95212.47
2023-03-04T04:17:07.668Z,95218.41
2023-03-04T04:19:34.074Z,95215.25
2023-03-04T04:22:00.656Z,95216.78
2023-03-04T04:24:27.091Z,95218.88
2023-03-04T04:26:53.483Z,95217.47
2023-03-04T04:29:19.884Z,95219.00
2023-03-04T04:31:46.260Z,95223.72
2023-03-04T04:34:12.681Z,95220.69
2023-03-04T04:36:39.060Z,95224.94
2023-03-04T04:39:05.441Z,95215.88
2023-03-04T04:41:31.875Z,95222.66
2023-03-04T04:43:58.245Z,95231.09
2023-03-04T04:46:24.707Z,95222.53
2023-03-04T04:48:51.146Z,95231.88
2023-03-04T04:51:17.544Z,95225.91
2023-03-04T04:53:43.940Z,95235.06
2023-03-04T04:56:10.312Z,95227.09
2023-03-04T04:58:36.689Z,95230.88
2023-03-04T05:01:03.130Z,95228.88
2023-03-04T05:03:29.569Z,95230.81
2023-03-04T05:05:56.005Z,95231.63
2023-03-04T05:08:22.362Z,95227.00
2023-03-04T05:10:48.787Z,95226.06
2023-03-04T05:13:15.192Z,95220.38
2023-03-04T05:15:41.604Z,95225.94
2023-03-04T05:18:08.025Z,95223.81
2023-03-04T05:20:34.378Z,95220.09
2023-03-04T05:23:00.779Z,95217.97
2023-03-04T05:25:27.188Z,95217.88
2023-03-04T05:27:53.551Z,95226.75
2023-03-04T05:30:19.942Z,95223.34
2023-03-04T05:32:46.303Z,95224.72
2023-03-04T05:35:12.697Z,95221.22
2023-03-04T05:37:39.049Z,95216.31
2023-03-04T05:40:05.424Z,95224.13
2023-03-04T05:42:31.794Z,95227.91
2023-03-04T05:44:58.178Z,95224.25
2023-03-04T05:47:24.639Z,95228.69
2023-03-04T05:49:51.054Z,95223.44
2023-03-04T05:52:17.441Z,95227.47
2023-03-04T05:54:43.849Z,95230.44
2023-03-04T05:57:10.219Z,95228.59
2023-03-04T05:59:36.644Z,95232.94
2023-03-04T06:02:03.055Z,95237.56
2023-03-04T06:04:29.431Z,95235.31
2023-03-04T06:06:55.832Z,95241.78
2023-03-04T06:09:22.224Z,95238.06
2023-03-04T06:11:48.614Z,95242.09
2023-03-04T06:14:15.059Z,95237.28
2023-03-04T06:16:41.458Z,95237.19
2023-03-04T06:19:07.852Z,95246.06
2023-03-04T06:21:34.230Z,95242.97
2023-03-04T06:24:00.607Z,95249.06
2023-03-04T06:26:26.983Z,95242.09
2023-03-04T06:28:53.372Z,95244.69
2023-03-04T06:31:19.788Z,95250.78
2023-03-04T06:33:46.184Z,95244.56
2023-03-04T06:36:12.592Z,95244.06
2023-03-04T06:38:38.977Z,95249.38
2023-03-04T06:41:05.369Z,95253.53
2023-03-04T06:43:31.755Z,95253.16
2023-03-04T06:45:58.131Z,95247.66
2023-03-04T06:48:24.521Z,95253.09
2023-03-04T06:50:50.900Z,95255.25
2023-03-04T06:53:17.289Z,95249.75
2023-03-04T06:55:43.661Z,95258.44
2023-03-04T06:58:10.031Z,95260.84
2023-03-04T07:00:36.507Z,95261.41
2023-03-04T07:03:02.913Z,95262.84
2023-03-04T07:05:29.349Z,95267.94
2023-03-04T07:07:55.724Z,95266.84
2023-03-04T07:10:22.123Z,95268.25
2023-03-04T07:12:48.508Z,95270.59
2023-03-04T07:15:14.962Z,95271.41
2023-03-04T07:17:41.349Z,95266.09
2023-03-04T07:20:08.020Z,95282.25
2023-03-04T07:22:34.477Z,95278.03
2023-03-04T07:25:00.918Z,95272.22
2023-03-04T07:27:27.325Z,95277.47
2023-03-04T07:29:53.705Z,95280.47
2023-03-04T07:32:20.147Z,95274.31
2023-03-04T07:34:46.656Z,95281.56
2023-03-04T07:37:14.665Z,95282.00
2023-03-04T07:39:41.069Z,95286.56
2023-03-04T07:42:07.466Z,95287.78
2023-03-04T07:44:33.856Z,95280.00
2023-03-04T07:47:00.209Z,95282.53
2023-03-04T07:49:26.615Z,95291.03
2023-03-04T07:51:53.019Z,95288.63
2023-03-04T07:54:19.394Z,95301.13
2023-03-04T07:56:45.781Z,95290.81
2023-03-04T07:59:12.156Z,95292.81
2023-03-04T08:01:38.543Z,95292.97
2023-03-04T08:04:04.960Z,95295.69
2023-03-04T08:06:31.494Z,95300.94
2023-03-04T08:08:57.873Z,95304.16
2023-03-04T08:11:24.242Z,95297.66
2023-03-04T08:13:50.667Z,95301.25
2023-03-04T08:16:17.120Z,95298.63
2023-03-04T08:18:43.546Z,95308.31
2023-03-04T08:21:09.954Z,95308.31
2023-03-04T08:23:37.414Z,95300.22
2023-03-04T08:26:03.798Z,95301.75
2023-03-04T08:28:30.198Z,95301.41
2023-03-04T08:30:56.597Z,95310.31
2023-03-04T08:33:23.024Z,95311.91
2023-03-04T08:35:49.411Z,95308.44
2023-03-04T08:38:15.800Z,95315.09
2023-03-04T08:40:42.179Z,95313.09
2023-03-04T08:43:08.536Z,95319.66
2023-03-04T08:45:34.906Z,95315.38
2023-03-04T08:48:01.279Z,95313.63
2023-03-04T08:50:27.733Z,95312.03
2023-03-04T08:52:54.221Z,95314.13
2023-03-04T08:55:20.623Z,95304.69
2023-03-04T08:57:47.015Z,95310.75
2023-03-04T09:00:13.421Z,95303.91
2023-03-04T09:02:39.820Z,95309.75
2023-03-04T09:05:06.213Z,95313.84
2023-03-04T09:07:32.618Z,95309.94
2023-03-04T09:09:58.984Z,95318.47
2023-03-04T09:12:25.402Z,95320.41
2023-03-04T09:15:08.382Z,95309.69
2023-03-04T09:17:36.886Z,95310.03
2023-03-04T09:20:04.539Z,95318.63
2023-03-04T09:22:31.032Z,95310.47
2023-03-04T09:24:57.413Z,95321.78
2023-03-04T09:27:23.808Z,95316.09
2023-03-04T09:29:50.189Z,95314.75
2023-03-04T09:32:16.629Z,95310.88
2023-03-04T09:34:43.050Z,95312.28
2023-03-04T09:37:09.452Z,95311.44
2023-03-04T09:39:35.819Z,95302.09
2023-03-04T09:42:02.226Z,95299.97
2023-03-04T09:44:28.630Z,95306.88
2023-03-04T09:46:55.121Z,95312.88
2023-03-04T09:49:21.572Z,95306.16
2023-03-04T09:52:03.369Z,95303.53
2023-03-04T09:54:29.759Z,95300.53
2023-03-04T09:56:56.161Z,95297.78
2023-03-04T09:59:22.541Z,95300.97
2023-03-04T10:01:48.965Z,95299.78
2023-03-04T10:04:15.336Z,95295.00
2023-03-04T10:06:41.813Z,95294.97
2023-03-04T10:09:08.220Z,95291.22
2023-03-04T10:11:34.630Z,95287.19
2023-03-04T10:14:01.035Z,95285.28
2023-03-04T10:16:27.555Z,95279.44
2023-03-04T10:18:54.027Z,95280.78
2023-03-04T10:21:20.409Z,95285.59
2023-03-04T10:23:46.794Z,95281.84
2023-03-04T10:26:13.169Z,95273.56
2023-03-04T10:28:39.574Z,95280.81
2023-03-04T10:31:05.947Z,95282.78
2023-03-04T10:33:32.348Z,95275.50
2023-03-04T10:35:58.848Z,95273.84
2023-03-04T10:38:25.263Z,95275.75
2023-03-04T10:40:51.648Z,95272.19
2023-03-04T10:43:18.060Z,95260.81
2023-03-04T10:45:44.588Z,95259.28
2023-03-04T10:48:11.017Z,95258.63
2023-03-04T10:50:37.403Z,95254.56
2023-03-04T10:53:03.764Z,95262.41
2023-03-04T10:55:30.167Z,95251.38
2023-03-04T10:57:57.991Z,95255.00
2023-03-04T11:00:24.487Z,95255.88
2023-03-04T11:02:50.875Z,95246.81
2023-03-04T11:05:17.294Z,95255.69
2023-03-04T11:07:54.664Z,95244.75
2023-03-04T11:10:22.403Z,95240.41
2023-03-04T11:12:48.763Z,95248.03
2023-03-04T11:15:15.194Z,95245.66
2023-03-04T11:17:41.590Z,95244.28
2023-03-04T11:20:07.956Z,95244.66
2023-03-04T11:22:34.334Z,95244.41
2023-03-04T11:25:00.720Z,95232.19
2023-03-04T11:27:27.124Z,95229.09
2023-03-04T11:29:53.517Z,95226.88
2023-03-04T11:32:20.056Z,95238.94
2023-03-04T11:34:46.570Z,95227.50
2023-03-04T11:37:12.971Z,95222.03
2023-03-04T11:39:39.363Z,95222.09
2023-03-04T11:42:05.732Z,95215.84
2023-03-04T11:44:32.119Z,95215.38
2023-03-04T11:46:58.502Z,95215.72
2023-03-04T11:49:24.935Z,95210.22
2023-03-04T11:51:51.298Z,95205.31
2023-03-04T11:54:17.654Z,95194.31
2023-03-04T11:56:44.056Z,95203.06
2023-03-04T11:59:10.428Z,95201.56
2023-03-04T12:01:36.803Z,95204.25
2023-03-04T12:04:03.322Z,95196.78
2023-03-04T12:06:29.781Z,95198.19
2023-03-04T12:08:56.134Z,95188.03
2023-03-04T12:11:22.593Z,95185.97
2023-03-04T12:13:48.990Z,95181.72
2023-03-04T12:16:15.596Z,95178.47
2023-03-04T12:18:42.473Z,95178.13
2023-03-04T12:21:08.838Z,95170.44
2023-03-04T12:23:35.238Z,95163.09
2023-03-04T12:26:01.674Z,95172.81
2023-03-04T12:28:28.157Z,95163.44
2023-03-04T12:30:54.626Z,95156.22
2023-03-04T12:33:21.463Z,95149.81
2023-03-04T12:35:47.962Z,95149.75
2023-03-04T12:38:14.344Z,95143.47
2023-03-04T12:40:40.739Z,95144.41
2023-03-04T12:43:07.117Z,95143.84
2023-03-04T12:45:33.503Z,95134.66
2023-03-04T12:47:59.897Z,95125.53
2023-03-04T12:50:26.268Z,95142.19
2023-03-04T12:52:52.647Z,95134.66
2023-03-04T12:55:19.023Z,95125.97
2023-03-04T12:57:45.452Z,95118.31
2023-03-04T13:00:11.822Z,95113.31
2023-03-04T13:02:38.320Z,95109.22
2023-03-04T13:05:04.764Z,95101.28
2023-03-04T13:07:31.144Z,95100.69
2023-03-04T13:09:57.583Z,95100.06
2023-03-04T13:12:24.089Z,95097.59
2023-03-04T13:14:50.458Z,95094.19
2023-03-04T13:17:16.847Z,95089.97
2023-03-04T13:19:43.219Z,95085.88
2023-03-04T13:22:09.668Z,95078.56
2023-03-04T13:24:36.040Z,95087.94
2023-03-04T13:27:02.411Z,95076.94
2023-03-04T13:29:28.827Z,95073.75
2023-03-04T13:31:56.348Z,95078.44
2023-03-04T13:34:22.787Z,95080.56
2023-03-04T13:36:49.154Z,95068.00
2023-03-04T13:39:16.434Z,95074.84
2023-03-04T13:41:42.812Z,95078.00
2023-03-04T13:44:09.217Z,95070.13
2023-03-04T13:46:35.601Z,95076.41
2023-03-04T13:49:02.014Z,95067.63
2023-03-04T13:51:29.948Z,95066.84
2023-03-04T13:53:56.658Z,95069.94
2023-03-04T13:56:23.035Z,95068.78
2023-03-04T13:58:49.412Z,95065.13
2023-03-04T14:01:15.906Z,95066.56
2023-03-04T14:03:44.803Z,95065.03
2023-03-04T14:06:11.363Z,95067.78
2023-03-04T14:08:38.631Z,95065.00
2023-03-04T14:11:05.077Z,95060.47
2023-03-04T14:13:31.455Z,95063.47
2023-03-04T14:15:57.880Z,95063.28
2023-03-04T14:18:24.299Z,95048.81
2023-03-04T14:20:50.706Z,95056.81
2023-03-04T14:23:17.073Z,95046.44
2023-03-04T14:25:43.480Z,95056.66
2023-03-04T14:28:09.847Z,95043.03
2023-03-04T14:30:42.634Z,95037.94
2023-03-04T14:33:09.482Z,95049.41
2023-03-04T14:35:35.940Z,95039.31
2023-03-04T14:38:02.378Z,95034.28
2023-03-04T14:40:28.809Z,95033.28
2023-03-04T14:42:55.200Z,95026.81
2023-03-04T14:45:21.679Z,95024.81
2023-03-04T14:47:48.094Z,95013.25
2023-03-04T14:50:14.468Z,95025.69
2023-03-04T14:52:40.849Z,95022.44
2023-03-04T14:55:07.267Z,95019.00
2023-03-04T14:57:33.680Z,95012.78
2023-03-04T15:00:00.048Z,95014.28
2023-03-04T15:02:26.467Z,95014.81
2023-03-04T15:04:52.922Z,95010.91
2023-03-04T15:07:19.361Z,95011.72
2023-03-04T15:09:45.741Z,95015.44
2023-03-04T15:12:12.217Z,95012.97
2023-03-04T15:14:38.631Z,95011.91
2023-03-04T15:17:05.065Z,95004.94
2023-03-04T15:19:31.528Z,95004.41
2023-03-04T15:21:57.890Z,95012.88
2023-03-04T15:24:24.263Z,95004.09
2023-03-04T15:26:50.650Z,95000.13
2023-03-04T15:29:17.053Z,95004.63
2023-03-04T15:31:43.466Z,94996.06
2023-03-04T15:34:09.918Z,94990.81
2023-03-04T15:36:36.299Z,94994.03
2023-03-04T15:39:02.696Z,94986.59
2023-03-04T15:41:29.059Z,94995.09
2023-03-04T15:43:55.456Z,94992.75
2023-03-04T15:46:21.886Z,94992.72
2023-03-04T15:48:48.326Z,94986.25
2023-03-04T15:51:14.746Z,94994.00
2023-03-04T15:53:41.156Z,94993.75
2023-03-04T15:56:07.570Z,94988.31
2023-03-04T15:58:35.261Z,94986.56
2023-03-04T16:01:01.864Z,94985.13
2023-03-04T16:03:28.390Z,94982.81
2023-03-04T16:05:54.801Z,94987.97
2023-03-04T16:08:21.229Z,94989.25
2023-03-04T16:10:47.653Z,94987.53
2023-03-04T16:13:14.030Z,94992.94
2023-03-04T16:15:40.406Z,94983.28
2023-03-04T16:18:06.805Z,94989.13
2023-03-04T16:20:33.194Z,94988.47
2023-03-04T16:22:59.588Z,94990.22
2023-03-04T16:25:25.964Z,94997.84
2023-03-04T16:27:52.372Z,94983.91
2023-03-04T16:30:18.776Z,94997.72
2023-03-04T16:32:45.140Z,94987.28
2023-03-04T16:35:11.575Z,94992.78
2023-03-04T16:37:38.120Z,94998.41
2023-03-04T16:40:04.618Z,94997.38
2023-03-04T16:42:31.102Z,94990.06
2023-03-04T16:44:57.497Z,94991.69
2023-03-04T16:47:23.905Z,94990.94
2023-03-04T16:49:50.297Z,94984.84
2023-03-04T16:52:16.664Z,94993.97
2023-03-04T16:54:43.162Z,94992.53
2023-03-04T16:57:09.530Z,94992.88
2023-03-04T16:59:36.199Z,95003.63
2023-03-04T17:02:02.593Z,95001.09
2023-03-04T17:04:30.566Z,95005.78
2023-03-04T17:06:57.248Z,95000.38
2023-03-04T17:09:23.649Z,95014.81
2023-03-04T17:11:50.046Z,95006.63
2023-03-04T17:14:16.432Z,95014.38
2023-03-04T17:16:42.818Z,95008.66
2023-03-04T17:19:09.207Z,95010.09
2023-03-04T17:21:37.067Z,95007.25
2023-03-04T17:24:03.465Z,95005.84
2023-03-04T17:26:29.850Z,95010.56
2023-03-04T17:28:56.276Z,95013.53
2023-03-04T17:31:22.704Z,95012.78
2023-03-04T17:33:49.148Z,95016.75
2023-03-04T17:36:15.682Z,95022.81
2023-03-04T17:38:42.119Z,95022.78
2023-03-04T17:41:08.596Z,95031.94
2023-03-04T17:43:34.974Z,95034.22
2023-03-04T17:46:01.370Z,95031.19
2023-03-04T17:48:27.795Z,95025.22
2023-03-04T17:50:54.230Z,95024.13
2023-03-04T17:53:20.652Z,95023.78
2023-03-04T17:55:47.055Z,95023.78
2023-03-04T17:58:13.502Z,95014.81
2023-03-04T18:00:39.894Z,95015.78
2023-03-04T18:03:06.305Z,95015.34
2023-03-04T18:05:32.735Z,95017.44
2023-03-04T18:07:59.117Z,95006.16
2023-03-04T18:10:25.493Z,95015.69
2023-03-04T18:12:51.856Z,95014.22
2023-03-04T18:15:18.225Z,95016.91
2023-03-04T18:17:44.619Z,95005.97
2023-03-04T18:20:11.054Z,95012.41
2023-03-04T18:22:37.425Z,95005.28
2023-03-04T18:25:03.822Z,95011.72
2023-03-04T18:27:30.254Z,95012.09
2023-03-04T18:29:56.916Z,95015.19
2023-03-04T18:32:23.369Z,95014.06
2023-03-04T18:34:49.814Z,95015.22
2023-03-04T18:37:16.266Z,95017.91
2023-03-04T18:39:42.670Z,95013.75
2023-03-04T18:42:09.330Z,95017.91
2023-03-04T18:44:35.746Z,95016.03
2023-03-04T18:47:02.146Z,95015.28
2023-03-04T18:49:28.551Z,95009.25
2023-03-04T18:51:54.925Z,95009.28
2023-03-04T18:54:21.364Z,95008.88
2023-03-04T18:56:47.732Z,95017.19
2023-03-04T18:59:14.138Z,95010.00
2023-03-04T19:01:40.586Z,95012.28
2023-03-04T19:04:07.061Z,95007.75
2023-03-04T19:06:33.521Z,94999.81
2023-03-04T19:08:59.949Z,95015.31
2023-03-04T19:11:26.324Z,95014.56
2023-03-04T19:13:52.731Z,95013.03
2023-03-04T19:16:19.098Z,95024.75
2023-03-04T19:18:45.521Z,95024.34
2023-03-04T19:21:11.922Z,95019.81
2023-03-04T19:23:38.319Z,95026.63
2023-03-04T19:26:04.720Z,95025.06
2023-03-04T19:28:31.105Z,95029.22
2023-03-04T19:30:58.454Z,95034.88
2023-03-04T19:33:24.858Z,95032.94
2023-03-04T19:35:51.278Z,95032.56
2023-03-04T19:38:17.710Z,95032.16
2023-03-04T19:40:44.103Z,95028.75
2023-03-04T19:43:10.561Z,95023.47
2023-03-04T19:45:36.955Z,95022.34
2023-03-04T19:48:03.365Z,95021.16
2023-03-04T19:50:29.772Z,95022.66
2023-03-04T19:52:56.142Z,95019.25
2023-03-04T19:55:22.514Z,95025.97
2023-03-04T19:57:48.939Z,95031.66
2023-03-04T20:00:15.396Z,95019.22
2023-03-04T20:02:41.835Z,95015.47
2023-03-04T20:05:08.270Z,95010.50
2023-03-04T20:07:34.633Z,95019.53
2023-03-04T20:10:01.042Z,95011.59
2023-03-04T20:12:27.419Z,95013.50
2023-03-04T20:14:53.797Z,95021.84
2023-03-04T20:17:20.210Z,95025.22
2023-03-04T20:19:46.610Z,95031.63
2023-03-04T20:22:13.029Z,95026.31
2023-03-04T20:24:39.423Z,95027.41
2023-03-04T20:27:05.815Z,95039.03
2023-03-04T20:29:32.214Z,95037.16
2023-03-04T20:31:58.679Z,95028.41
2023-03-04T20:34:25.194Z,95019.31
2023-03-04T20:36:51.643Z,95019.38
2023-03-04T20:39:28.792Z,95022.38
2023-03-04T20:41:56.093Z,95018.59
2023-03-04T20:44:22.501Z,95014.09
2023-03-04T20:46:48.919Z,95018.69
2023-03-04T20:49:15.344Z,95015.66
2023-03-04T20:51:42.741Z,95008.84
2023-03-04T20:54:09.149Z,95007.56
2023-03-04T20:56:35.549Z,95015.47
2023-03-04T20:59:02.005Z,95006.47
2023-03-04T21:01:28.440Z,95010.97
2023-03-04T21:03:54.933Z,95008.63
2023-03-04T21:06:21.405Z,95007.84
2023-03-04T21:08:47.800Z,95006.25
2023-03-04T21:11:14.191Z,95006.63
2023-03-04T21:13:40.680Z,95010.78
2023-03-04T21:16:07.079Z,95004.38
2023-03-04T21:18:33.492Z,95009.25
2023-03-04T21:20:59.888Z,95000.59
2023-03-04T21:23:26.266Z,95009.25
2023-03-04T21:25:52.623Z,95005.50
2023-03-04T21:28:19.040Z,95013.28
2023-03-04T21:30:45.429Z,95009.19
2023-03-04T21:33:11.824Z,95006.84
2023-03-04T21:35:38.252Z,95004.59
2023-03-04T21:38:04.656Z,95008.38
2023-03-04T21:40:31.039Z,94997.81
2023-03-04T21:42:57.445Z,94996.41
2023-03-04T21:45:23.864Z,95001.63
2023-03-04T21:47:50.254Z,94998.38
2023-03-04T21:50:16.668Z,94996.47
2023-03-04T21:52:43.026Z,94994.09
2023-03-04T21:55:09.412Z,94991.84
2023-03-04T21:57:35.863Z,94993.81
2023-03-04T22:00:02.711Z,94991.88
2023-03-04T22:02:30.058Z,94994.88
2023-03-04T22:04:56.421Z,94993.38
2023-03-04T22:07:22.848Z,94995.63
2023-03-04T22:09:49.287Z,94989.69
2023-03-04T22:12:17.646Z,94991.81
2023-03-04T22:14:45.495Z,94991.09
2023-03-04T22:17:11.955Z,94988.75
2023-03-04T22:19:38.433Z,94994.34
2023-03-04T22:22:04.804Z,94995.50
2023-03-04T22:24:31.179Z,94990.97
2023-03-04T22:26:57.565Z,94993.28
2023-03-04T22:29:23.944Z,95001.19
2023-03-04T22:31:50.380Z,94992.84
2023-03-04T22:34:16.778Z,94993.94
2023-03-04T22:36:43.219Z,94990.47
2023-03-04T22:39:09.620Z,94991.53
2023-03-04T22:41:36.020Z,94988.56
2023-03-04T22:44:02.432Z,94995.97
2023-03-04T22:46:28.826Z,94991.25
2023-03-04T22:48:55.236Z,94991.66
2023-03-04T22:51:21.630Z,94999.25
2023-03-04T22:53:48.060Z,94999.50
2023-03-04T22:56:14.449Z,94997.44
2023-03-04T22:58:40.852Z,95001.56
2023-03-04T23:01:07.271Z,95003.25
2023-03-04T23:03:33.684Z,95001.88
2023-03-04T23:06:00.140Z,95006.44
2023-03-04T23:08:26.531Z,95008.94
2023-03-04T23:10:52.948Z,95003.72
2023-03-04T23:13:19.346Z,95007.06
2023-03-04T23:15:45.735Z,94998.38
2023-03-04T23:18:12.162Z,95005.53
2023-03-04T23:20:38.533Z,95007.53
2023-03-04T23:23:04.931Z,95003.00
2023-03-04T23:25:31.313Z,95000.06
2023-03-04T23:27:57.704Z,94998.00
2023-03-04T23:30:24.100Z,94993.03
2023-03-04T23:32:50.500Z,94995.97
2023-03-04T23:35:16.904Z,94998.38
2023-03-04T23:37:43.288Z,94992.00
2023-03-04T23:40:09.684Z,94996.88
2023-03-04T23:42:36.050Z,94992.38
2023-03-04T23:45:02.476Z,95001.34
2023-03-04T23:47:28.901Z,94999.16
2023-03-04T23:49:55.320Z,94992.75
2023-03-04T23:52:21.739Z,94997.72
2023-03-04T23:54:48.146Z,94988.81
2023-03-04T23:57:14.535Z,94990.13
2023-03-04T23:59:40.907Z,94984.09
